Time;durP1;ratioP1;P1;durP2;ratioP2;P2;SDS_P1;SDS_P2;PMS_P1;PMS_P2;Temp;Humidity;BMP_temperature;BMP_pressure;BME280_temperature;BME280_humidity;BME280_pressure;Samples;Min_cycle;Max_cycle;Signal;HPM_P1;HPM_P2
2022/06/13 00:01:22;;;;;;;3.22;1.52;;;18.10;99.90;;;;;;5014133;28;20057;-56
2022/06/13 00:03:49;;;;;;;2.97;1.10;;;18.10;99.90;;;;;;5012275;28;20025;-53
2022/06/13 00:06:15;;;;;;;2.83;1.30;;;18.10;99.90;;;;;;5012690;28;20052;-53
2022/06/13 00:08:40;;;;;;;4.10;1.48;;;18.10;99.90;;;;;;5013613;28;20032;-52
2022/06/13 00:11:13;;;;;;;3.75;1.50;;;18.10;99.90;;;;;;5012327;28;20108;-53
2022/06/13 00:13:39;;;;;;;4.90;1.42;;;18.10;99.90;;;;;;5012217;28;20026;-55
2022/06/13 00:16:05;;;;;;;6.95;1.50;;;18.00;99.90;;;;;;5013735;28;20022;-54
2022/06/13 00:18:30;;;;;;;6.07;1.40;;;17.90;99.90;;;;;;5013704;28;20025;-55
2022/06/13 00:20:56;;;;;;;1.73;1.02;;;17.80;99.90;;;;;;5013361;28;20041;-53
2022/06/13 00:23:22;;;;;;;2.20;1.30;;;17.80;99.90;;;;;;5012023;28;20018;-53
2022/06/13 00:25:48;;;;;;;2.75;1.08;;;17.70;99.90;;;;;;5012055;28;20488;-53
2022/06/13 00:28:14;;;;;;;2.25;1.40;;;17.60;99.90;;;;;;5013322;28;20076;-56
2022/06/13 00:30:39;;;;;;;4.05;1.35;;;17.60;99.90;;;;;;5011966;28;20026;-50
2022/06/13 00:33:05;;;;;;;5.47;1.27;;;17.50;99.90;;;;;;5013446;28;20026;-52
2022/06/13 00:35:31;;;;;;;2.60;1.30;;;17.50;99.90;;;;;;5011930;28;20028;-51
2022/06/13 00:37:56;;;;;;;3.08;1.35;;;17.40;99.90;;;;;;5012239;28;20167;-52
2022/06/13 00:40:22;;;;;;;4.13;1.20;;;17.40;99.90;;;;;;5013033;28;20391;-53
2022/06/13 00:42:48;;;;;;;4.10;1.60;;;17.30;99.90;;;;;;5013184;28;20025;-53
2022/06/13 00:45:14;;;;;;;6.20;1.85;;;17.30;99.90;;;;;;5013135;28;20033;-52
2022/06/13 00:47:42;;;;;;;5.13;1.63;;;17.30;99.90;;;;;;5011882;28;20018;-52
2022/06/13 00:50:13;;;;;;;3.78;2.15;;;17.20;99.90;;;;;;5013549;28;20037;-54
2022/06/13 00:52:41;;;;;;;4.93;1.38;;;17.20;99.90;;;;;;5013064;28;20083;-52
2022/06/13 00:55:11;;;;;;;8.82;2.03;;;17.20;99.90;;;;;;5013284;28;20030;-50
2022/06/13 00:57:37;;;;;;;4.28;1.83;;;17.10;99.90;;;;;;5011704;28;20032;-52
2022/06/13 01:00:09;;;;;;;7.85;2.13;;;17.00;99.90;;;;;;5012971;28;20101;-52
2022/06/13 01:02:40;;;;;;;4.95;1.30;;;17.00;99.90;;;;;;5011542;28;20030;-50
2022/06/13 01:05:07;;;;;;;2.97;1.77;;;16.90;99.90;;;;;;5013244;28;20338;-56
2022/06/13 01:07:33;;;;;;;4.05;1.63;;;16.90;99.90;;;;;;5011626;28;20037;-53
2022/06/13 01:12:44;;;;;;;6.30;1.40;;;16.80;99.90;;;;;;5013342;28;20037;-54
2022/06/13 01:15:12;;;;;;;2.65;1.50;;;16.80;99.90;;;;;;5012955;28;20030;-54
2022/06/13 01:18:06;;;;;;;2.50;1.58;;;16.70;99.90;;;;;;5014349;28;20029;-52
2022/06/13 01:20:54;;;;;;;5.18;1.50;;;16.70;99.90;;;;;;5016939;28;20033;-55
2022/06/13 01:23:49;;;;;;;7.65;1.80;;;16.70;99.90;;;;;;5015266;28;20034;-52
2022/06/13 01:26:34;;;;;;;4.95;1.40;;;16.70;99.90;;;;;;5016147;28;20022;-52
2022/06/13 01:29:27;;;;;;;3.33;1.50;;;16.60;99.90;;;;;;5016230;28;20030;-55
2022/06/13 01:32:08;;;;;;;3.20;1.60;;;16.50;99.90;;;;;;5016485;28;20026;-52
2022/06/13 01:35:00;;;;;;;5.43;1.63;;;16.50;99.90;;;;;;5015405;28;20018;-51
2022/06/13 01:38:04;;;;;;;;;;;16.40;99.90;;;;;;5017088;28;20025;-51
2022/06/13 01:41:02;;;;;;;4.35;1.45;;;16.40;99.90;;;;;;4975030;28;19910;-51
2022/06/13 01:43:49;;;;;;;4.05;1.50;;;16.30;99.90;;;;;;4975052;28;20037;-54
2022/06/13 01:46:36;;;;;;;5.78;1.75;;;16.30;99.90;;;;;;5009251;28;20030;-57
2022/06/13 01:49:43;;;;;;;6.05;1.63;;;16.20;99.90;;;;;;5016097;28;20026;-53
2022/06/13 01:52:29;;;;;;;1.85;1.50;;;16.20;99.90;;;;;;4993435;28;20099;-55
2022/06/13 01:55:00;;;;;;;7.15;1.65;;;16.00;99.90;;;;;;5014720;28;20026;-53
2022/06/13 01:57:42;;;;;;;4.63;1.73;;;16.00;99.90;;;;;;5015891;28;20022;-56
2022/06/13 02:00:09;;;;;;;3.63;1.58;;;15.90;99.90;;;;;;5015936;28;20062;-57
2022/06/13 02:02:53;;;;;;;7.47;1.95;;;15.70;99.90;;;;;;5015932;28;20022;-56
2022/06/13 02:05:24;;;;;;;4.13;1.48;;;15.60;99.90;;;;;;5015296;28;20030;-54
2022/06/13 02:07:57;;;;;;;3.25;1.60;;;15.60;99.90;;;;;;5014542;28;20064;-54
2022/06/13 02:10:29;;;;;;;8.10;1.60;;;15.50;99.90;;;;;;5014512;28;20030;-50
2022/06/13 02:13:06;;;;;;;3.50;1.38;;;15.60;99.90;;;;;;5014504;28;20037;-51
2022/06/13 02:15:42;;;;;;;3.50;1.85;;;15.50;99.90;;;;;;5014355;28;20033;-51
2022/06/13 02:18:16;;;;;;;5.78;1.80;;;15.40;99.90;;;;;;5014928;28;20034;-51
2022/06/13 02:20:47;;;;;;;6.55;1.70;;;15.30;99.90;;;;;;5015617;28;20026;-53
2022/06/13 02:23:19;;;;;;;5.03;1.48;;;15.30;99.90;;;;;;5014524;28;20480;-51
2022/06/13 02:25:54;;;;;;;5.78;2.22;;;15.30;99.90;;;;;;5014271;28;20030;-52
2022/06/13 02:28:33;;;;;;;1.90;1.65;;;15.30;99.90;;;;;;5014350;28;20014;-51
2022/06/13 02:31:09;;;;;;;3.00;1.27;;;15.30;99.90;;;;;;5015474;28;20026;-52
2022/06/13 02:33:40;;;;;;;2.72;1.42;;;15.30;99.90;;;;;;5015294;28;20510;-55
2022/06/13 02:36:32;;;;;;;7.15;1.50;;;15.20;99.90;;;;;;5014181;28;20053;-53
2022/06/13 02:39:00;;;;;;;4.65;1.92;;;15.10;99.90;;;;;;5015164;28;20480;-55
2022/06/13 02:41:35;;;;;;;5.05;2.47;;;15.00;99.90;;;;;;5014218;28;20046;-52
2022/06/13 02:44:10;;;;;;;5.47;1.95;;;15.00;99.90;;;;;;5013848;28;20030;-53
2022/06/13 02:46:46;;;;;;;2.45;1.40;;;14.90;99.90;;;;;;5013796;28;20022;-54
2022/06/13 02:49:29;;;;;;;4.82;1.60;;;14.80;99.90;;;;;;5015010;28;20129;-55
2022/06/13 02:52:07;;;;;;;5.45;2.03;;;14.70;99.90;;;;;;5014685;28;20084;-53
2022/06/13 02:54:39;;;;;;;6.53;1.55;;;14.60;99.90;;;;;;5014177;28;20031;-52
2022/06/13 02:57:27;;;;;;;3.53;1.55;;;14.60;99.90;;;;;;5014937;28;20486;-54
2022/06/13 03:00:14;;;;;;;3.63;1.67;;;14.60;99.90;;;;;;5015093;28;20072;-51
2022/06/13 03:02:46;;;;;;;3.13;1.48;;;14.50;99.90;;;;;;5013296;28;20026;-51
2022/06/13 03:05:21;;;;;;;;;;;14.50;99.90;;;;;;5015165;28;20033;-50
2022/06/13 03:07:57;;;;;;;3.42;1.70;;;14.50;99.90;;;;;;5013388;28;19927;-52
2022/06/13 03:10:34;;;;;;;6.72;1.50;;;14.50;99.90;;;;;;5013363;28;20488;-53
2022/06/13 03:13:02;;;;;;;8.77;2.30;;;14.40;99.90;;;;;;5013451;28;20022;-53
2022/06/13 03:15:43;;;;;;;5.63;1.63;;;14.30;99.90;;;;;;5013234;28;20034;-53
2022/06/13 03:18:17;;;;;;;5.05;1.75;;;14.30;99.90;;;;;;5014728;28;20045;-52
2022/06/13 03:20:53;;;;;;;5.68;2.28;;;14.30;99.90;;;;;;5013226;28;20052;-53
2022/06/13 03:23:30;;;;;;;5.50;1.60;;;14.40;99.90;;;;;;5014576;28;20038;-50
2022/06/13 03:25:59;;;;;;;4.43;1.90;;;14.40;99.90;;;;;;5014754;28;20022;-52
2022/06/13 03:28:35;;;;;;;8.35;1.92;;;14.50;99.90;;;;;;5012944;28;20053;-52
2022/06/13 03:31:33;;;;;;;4.28;1.83;;;14.40;99.90;;;;;;5013722;28;20030;-50
2022/06/13 03:34:05;;;;;;;8.25;2.22;;;14.40;99.90;;;;;;5013108;28;20387;-51
2022/06/13 03:36:42;;;;;;;6.13;2.10;;;14.40;99.90;;;;;;5014190;28;20088;-52
2022/06/13 03:39:40;;;;;;;5.20;2.38;;;14.40;99.90;;;;;;5013286;28;20056;-51
2022/06/13 03:42:30;;;;;;;2.38;1.23;;;14.40;99.90;;;;;;4991494;28;20057;-50
2022/06/13 03:45:06;;;;;;;2.72;1.88;;;14.50;99.90;;;;;;5012704;28;20018;-56
2022/06/13 03:47:38;;;;;;;5.32;1.85;;;14.40;99.90;;;;;;5014513;28;20114;-50
2022/06/13 03:50:10;;;;;;;5.38;1.92;;;14.40;99.90;;;;;;5013974;28;20056;-51
2022/06/13 03:52:37;;;;;;;;;;;14.40;99.90;;;;;;5014313;28;20030;-50
2022/06/13 03:55:19;;;;;;;6.70;2.33;;;14.50;99.90;;;;;;5013758;28;19905;-51
2022/06/13 03:58:02;;;;;;;5.80;2.20;;;14.50;99.90;;;;;;5012510;28;20026;-50
2022/06/13 04:00:32;;;;;;;3.17;1.98;;;14.60;99.90;;;;;;5013760;28;20080;-50
2022/06/13 04:02:59;;;;;;;2.72;1.50;;;14.70;99.90;;;;;;5012329;28;20026;-49
2022/06/13 04:05:35;;;;;;;8.63;2.08;;;14.70;99.90;;;;;;5012336;28;20029;-56
2022/06/13 04:08:01;;;;;;;4.43;1.92;;;14.70;99.90;;;;;;5012312;28;20435;-50
2022/06/13 04:10:31;;;;;;;6.05;1.98;;;14.60;99.90;;;;;;5013809;28;20038;-52
2022/06/13 04:13:20;;;;;;;2.75;1.63;;;14.60;99.90;;;;;;5012607;28;20084;-55
2022/06/13 04:16:22;;;;;;;3.83;1.92;;;14.60;99.90;;;;;;5013035;28;20057;-53
2022/06/13 04:19:12;;;;;;;4.95;1.80;;;14.70;99.90;;;;;;5013565;28;20048;-53
2022/06/13 04:21:53;;;;;;;5.07;1.80;;;14.80;99.90;;;;;;5013522;28;20091;-54
2022/06/13 04:24:47;;;;;;;6.22;1.83;;;14.80;99.90;;;;;;5013248;28;20022;-53
2022/06/13 04:27:15;;;;;;;5.95;1.48;;;14.80;99.90;;;;;;5014165;28;20034;-56
2022/06/13 04:29:51;;;;;;;6.03;2.03;;;14.90;99.90;;;;;;5011961;28;20045;-55
2022/06/13 04:32:23;;;;;;;3.63;1.40;;;15.10;99.90;;;;;;5013491;28;20029;-56
2022/06/13 04:34:51;;;;;;;5.18;1.55;;;15.10;99.90;;;;;;5014022;28;20025;-52
2022/06/13 04:37:22;;;;;;;5.20;2.17;;;15.40;99.90;;;;;;5013635;28;20026;-50
2022/06/13 04:39:50;;;;;;;4.45;1.80;;;15.50;99.90;;;;;;5014208;28;20495;-51
2022/06/13 04:42:18;;;;;;;5.10;1.80;;;15.70;99.90;;;;;;5012666;28;20022;-50
2022/06/13 04:44:45;;;;;;;3.78;1.70;;;15.80;99.90;;;;;;5013601;28;20018;-54
2022/06/13 04:47:15;;;;;;;5.75;1.70;;;15.80;99.90;;;;;;5013477;28;20030;-53
2022/06/13 04:49:52;;;;;;;10.02;1.60;;;15.90;99.90;;;;;;5013778;28;20022;-51
2022/06/13 04:52:25;;;;;;;2.90;1.67;;;15.90;99.90;;;;;;5015489;28;20034;-53
2022/06/13 04:55:00;;;;;;;7.68;2.22;;;15.90;99.90;;;;;;5017489;28;20109;-53
2022/06/13 04:57:27;;;;;;;3.92;1.80;;;16.00;99.90;;;;;;5017226;28;20064;-54
2022/06/13 04:59:54;;;;;;;6.97;1.85;;;16.20;99.90;;;;;;5016184;28;20120;-54
2022/06/13 05:02:39;;;;;;;8.05;1.73;;;16.40;99.90;;;;;;5017619;28;20472;-53
2022/06/13 05:05:19;;;;;;;8.80;2.35;;;16.60;99.90;;;;;;5017659;28;20064;-50
2022/06/13 05:07:45;;;;;;;4.70;1.80;;;16.90;99.90;;;;;;5016115;28;20045;-51
2022/06/13 05:10:16;;;;;;;3.47;1.40;;;17.10;99.90;;;;;;5015962;28;20030;-54
2022/06/13 05:12:43;;;;;;;;;;;17.30;99.90;;;;;;5016341;28;20038;-53
2022/06/13 05:15:31;;;;;;;3.70;1.80;;;17.50;99.90;;;;;;5016748;28;19906;-52
2022/06/13 05:18:21;;;;;;;2.08;1.38;;;17.70;99.90;;;;;;5017547;28;20079;-55
2022/06/13 05:20:52;;;;;;;3.85;1.67;;;17.80;99.90;;;;;;5016672;28;20061;-52
2022/06/13 05:23:46;;;;;;;5.40;1.92;;;18.00;99.90;;;;;;5017566;28;20049;-53
2022/06/13 05:26:11;;;;;;;6.47;1.77;;;18.10;99.90;;;;;;5015819;28;20117;-55
2022/06/13 05:28:37;;;;;;;3.47;2.15;;;18.10;99.90;;;;;;5015699;28;20053;-56
2022/06/13 05:31:26;;;;;;;3.63;1.45;;;18.10;99.90;;;;;;5017273;28;20036;-55
2022/06/13 05:33:52;;;;;;;3.10;1.90;;;18.30;99.90;;;;;;5015876;28;20098;-48
2022/06/13 05:36:21;;;;;;;4.70;2.28;;;18.30;99.90;;;;;;5015636;28;20056;-48
2022/06/13 05:38:52;;;;;;;4.18;1.50;;;18.40;99.90;;;;;;5016805;28;20109;-50
2022/06/13 05:41:18;;;;;;;5.55;2.00;;;18.60;99.90;;;;;;5015640;28;20101;-48
2022/06/13 05:43:44;;;;;;;5.43;1.73;;;18.60;99.90;;;;;;5016906;28;20057;-50
2022/06/13 05:46:25;;;;;;;4.20;1.75;;;18.60;99.90;;;;;;5016237;28;20161;-51
2022/06/13 05:48:51;;;;;;;6.03;1.63;;;18.80;99.90;;;;;;5015538;28;20022;-48
2022/06/13 05:51:18;;;;;;;4.78;1.90;;;18.90;99.90;;;;;;5016773;28;20053;-48
2022/06/13 05:53:44;;;;;;;6.20;1.63;;;19.00;99.90;;;;;;5016391;28;20525;-51
2022/06/13 05:56:11;;;;;;;4.18;1.73;;;19.20;99.90;;;;;;5015153;28;20064;-49
2022/06/13 05:58:37;;;;;;;6.28;2.28;;;19.60;99.90;;;;;;5015114;28;20018;-49
2022/06/13 06:01:05;;;;;;;6.03;1.90;;;19.80;99.90;;;;;;5016278;28;20026;-50
2022/06/13 06:03:31;;;;;;;4.65;1.73;;;20.00;99.90;;;;;;5016132;28;20033;-49
2022/06/13 06:05:59;;;;;;;5.85;2.15;;;20.40;99.90;;;;;;5016270;28;20018;-50
2022/06/13 06:08:35;;;;;;;4.97;2.28;;;20.80;99.90;;;;;;5015249;28;20030;-51
2022/06/13 06:11:00;;;;;;;5.68;2.00;;;21.00;99.90;;;;;;5015798;28;20076;-49
2022/06/13 06:13:28;;;;;;;7.90;2.10;;;21.20;99.90;;;;;;5014985;28;20030;-53
2022/06/13 06:15:54;;;;;;;2.30;1.60;;;21.40;99.90;;;;;;5015624;28;20080;-51
2022/06/13 06:18:21;;;;;;;6.10;1.67;;;21.30;99.90;;;;;;5014712;28;20026;-52
2022/06/13 06:20:47;;;;;;;7.22;2.33;;;21.50;99.90;;;;;;5014985;28;20026;-50
2022/06/13 06:23:13;;;;;;;4.45;1.65;;;21.60;99.90;;;;;;5014630;28;20037;-53
2022/06/13 06:25:39;;;;;;;3.88;1.80;;;21.80;99.90;;;;;;5016140;28;20026;-52
2022/06/13 06:28:05;;;;;;;6.05;1.90;;;22.30;99.90;;;;;;5015111;28;20018;-53
2022/06/13 06:30:31;;;;;;;3.75;1.55;;;23.10;99.90;;;;;;5014751;28;20048;-55
2022/06/13 06:32:58;;;;;;;8.20;2.05;;;24.20;99.90;;;;;;5014143;28;20551;-53
2022/06/13 06:35:27;;;;;;;5.07;1.63;;;25.40;99.90;;;;;;5014259;28;20022;-55
2022/06/13 06:37:54;;;;;;;4.25;2.30;;;26.30;99.90;;;;;;5015427;28;20088;-56
2022/06/13 06:40:22;;;;;;;4.00;1.95;;;27.00;98.80;;;;;;5015339;28;20033;-53
2022/06/13 06:42:48;;;;;;;6.05;2.15;;;27.60;97.20;;;;;;5014179;28;20030;-56
2022/06/13 06:45:14;;;;;;;4.50;1.45;;;28.20;95.00;;;;;;5014567;28;20068;-55
2022/06/13 06:47:40;;;;;;;4.82;2.00;;;28.70;94.60;;;;;;5015417;28;20022;-57
2022/06/13 06:50:14;;;;;;;4.78;1.80;;;29.10;91.10;;;;;;5015429;28;20048;-53
2022/06/13 06:52:41;;;;;;;5.68;2.10;;;29.50;90.60;;;;;;5014176;28;20113;-55
2022/06/13 07:00:45;;;;;;;4.30;2.42;;;31.10;79.40;;;;;;5015561;28;20072;-57
2022/06/13 07:03:11;;;;;;;5.65;1.85;;;30.90;80.70;;;;;;5015254;28;20061;-57
2022/06/13 07:05:37;;;;;;;5.97;2.00;;;31.60;76.90;;;;;;5013929;28;20030;-55
2022/06/13 07:08:02;;;;;;;4.68;2.15;;;31.80;75.00;;;;;;5015073;28;20029;-58
2022/06/13 07:10:28;;;;;;;8.07;2.15;;;32.20;78.10;;;;;;5013726;28;20041;-54
2022/06/13 07:12:54;;;;;;;5.57;1.95;;;32.50;71.30;;;;;;5014812;28;20036;-54
2022/06/13 07:15:20;;;;;;;7.57;1.85;;;33.10;72.70;;;;;;5014595;28;20026;-57
2022/06/13 07:17:45;;;;;;;5.03;1.73;;;33.20;68.80;;;;;;5014937;28;20030;-58
2022/06/13 07:20:12;;;;;;;5.68;1.80;;;33.70;66.80;;;;;;5014774;28;20033;-54
2022/06/13 07:22:47;;;;;;;8.07;2.20;;;33.80;67.60;;;;;;5013486;28;20037;-53
2022/06/13 07:25:17;;;;;;;8.05;3.40;;;34.70;64.80;;;;;;5014424;28;20380;-53
2022/06/13 07:27:43;;;;;;;9.88;2.17;;;35.20;63.20;;;;;;5013741;28;20033;-57
2022/06/13 07:30:10;;;;;;;3.33;1.70;;;35.40;60.70;;;;;;5013405;28;20042;-56
2022/06/13 07:32:36;;;;;;;9.13;1.88;;;35.00;65.20;;;;;;5014674;28;20053;-51
2022/06/13 07:35:02;;;;;;;7.18;1.98;;;35.20;59.20;;;;;;5014850;28;20104;-58
2022/06/13 07:40:13;;;;;;;7.78;3.50;;;35.90;59.60;;;;;;5014932;28;20037;-55
2022/06/13 07:42:43;;;;;;;8.65;1.90;;;36.20;58.30;;;;;;5014405;28;20096;-58
2022/06/13 07:45:12;;;;;;;;;;;36.00;56.60;;;;;;5014480;28;20116;-56
2022/06/13 07:47:37;;;;;;;4.15;1.98;;;35.50;58.60;;;;;;5013209;28;19984;-55
2022/06/13 07:50:03;;;;;;;9.88;2.38;;;35.20;58.30;;;;;;5013978;28;20056;-58
2022/06/13 07:52:31;;;;;;;7.05;2.05;;;34.50;58.60;;;;;;5012951;28;20411;-55
2022/06/13 07:54:57;;;;;;;8.55;2.22;;;34.00;60.80;;;;;;5014333;28;20018;-57
2022/06/13 07:57:22;;;;;;;5.32;1.58;;;33.30;58.50;;;;;;5012938;28;20523;-55
2022/06/13 07:59:48;;;;;;;7.95;1.65;;;32.10;57.70;;;;;;5014319;28;20113;-50
2022/06/13 08:02:17;;;;;;;5.88;1.90;;;30.90;60.10;;;;;;5012824;28;20030;-52
2022/06/13 08:04:43;;;;;;;8.77;1.80;;;30.20;62.90;;;;;;5012782;28;20053;-57
2022/06/13 08:07:15;;;;;;;6.78;2.03;;;29.50;62.50;;;;;;5012793;28;20068;-56
2022/06/13 08:09:40;;;;;;;5.20;2.50;;;28.90;67.20;;;;;;5012824;28;20080;-56
2022/06/13 08:12:07;;;;;;;8.85;1.98;;;28.50;63.60;;;;;;5014013;28;20435;-57
2022/06/13 08:14:33;;;;;;;5.13;1.85;;;28.10;65.10;;;;;;5013937;28;20045;-57
2022/06/13 08:16:59;;;;;;;5.30;2.15;;;27.70;66.20;;;;;;5013008;28;20034;-54
2022/06/13 08:19:24;;;;;;;6.20;1.70;;;27.30;67.00;;;;;;5012914;28;20032;-55
2022/06/13 08:21:51;;;;;;;7.30;2.25;;;27.00;68.90;;;;;;5012684;28;20117;-57
2022/06/13 08:24:18;;;;;;;11.32;2.55;;;26.80;68.90;;;;;;5012881;28;20036;-56
2022/06/13 08:26:44;;;;;;;7.63;1.70;;;26.60;68.00;;;;;;5012233;28;20026;-54
2022/06/13 08:29:10;;;;;;;9.65;2.10;;;26.40;69.00;;;;;;5012525;28;20022;-55
2022/06/13 08:31:36;;;;;;;4.45;1.90;;;26.10;71.80;;;;;;5013744;28;20041;-49
2022/06/13 08:34:04;;;;;;;5.45;1.90;;;25.90;69.30;;;;;;5012679;28;20025;-53
2022/06/13 08:36:30;;;;;;;4.35;1.70;;;25.80;71.00;;;;;;5012403;28;20029;-51
2022/06/13 08:38:55;;;;;;;7.20;2.22;;;25.60;69.80;;;;;;5012803;28;20029;-53
2022/06/13 08:41:38;;;;;;;7.72;2.13;;;25.30;71.30;;;;;;5012406;28;20026;-53
2022/06/13 08:44:17;;;;;;;5.97;2.28;;;25.30;72.30;;;;;;5014062;28;20362;-54
2022/06/13 08:47:14;;;;;;;6.22;2.13;;;25.30;71.70;;;;;;5014268;28;20022;-54
2022/06/13 08:50:04;;;;;;;4.53;1.67;;;25.40;72.00;;;;;;5013655;28;20026;-55
2022/06/13 08:52:30;;;;;;;5.15;1.85;;;25.30;71.20;;;;;;5012258;28;20033;-54
2022/06/13 08:55:10;;;;;;;9.40;2.45;;;25.40;71.50;;;;;;5012110;28;20030;-50
2022/06/13 08:57:39;;;;;;;6.57;1.92;;;25.70;72.00;;;;;;5013160;28;20075;-55
2022/06/13 09:00:12;;;;;;;8.25;2.05;;;25.60;73.10;;;;;;5013371;28;20123;-50
2022/06/13 09:03:09;;;;;;;8.25;2.08;;;25.70;73.30;;;;;;5011879;28;20018;-50
2022/06/13 09:05:56;;;;;;;6.25;1.95;;;26.00;72.30;;;;;;5012167;28;20022;-53
2022/06/13 09:08:45;;;;;;;8.43;2.40;;;26.50;71.70;;;;;;5013209;28;20030;-51
2022/06/13 09:11:33;;;;;;;6.65;1.92;;;27.00;71.10;;;;;;5013678;28;20494;-51
2022/06/13 09:14:21;;;;;;;6.35;2.05;;;27.30;69.30;;;;;;5012023;28;20496;-50
2022/06/13 09:17:14;;;;;;;6.15;1.83;;;27.50;69.10;;;;;;5012088;28;20026;-51
2022/06/13 09:20:10;;;;;;;5.90;1.77;;;27.60;68.30;;;;;;5013382;28;20026;-52
2022/06/13 09:22:54;;;;;;;10.57;1.88;;;29.20;65.90;;;;;;5012024;28;20480;-52
2022/06/13 09:25:27;;;;;;;5.22;2.00;;;31.10;64.50;;;;;;5013973;28;20026;-54
2022/06/13 09:28:12;;;;;;;6.93;2.78;;;32.50;63.70;;;;;;5012525;28;20033;-54
2022/06/13 09:31:07;;;;;;;4.30;2.00;;;33.70;59.10;;;;;;5013128;28;20044;-58
2022/06/13 09:33:36;;;;;;;8.55;2.58;;;34.40;57.30;;;;;;5009211;28;20038;-59
2022/06/13 09:36:29;;;;;;;8.00;2.15;;;33.80;57.80;;;;;;5013136;28;20053;-58
2022/06/13 09:39:05;;;;;;;7.00;2.13;;;32.90;58.80;;;;;;5016296;28;20029;-55
2022/06/13 09:41:49;;;;;;;7.82;2.78;;;32.90;58.70;;;;;;5017284;28;20029;-58
2022/06/13 09:44:33;;;;;;;9.38;3.10;;;32.10;59.50;;;;;;5016618;28;20088;-54
2022/06/13 09:47:14;;;;;;;9.25;2.97;;;31.00;63.30;;;;;;5015386;28;20445;-57
2022/06/13 09:49:55;;;;;;;9.93;3.45;;;29.80;68.90;;;;;;5016570;28;20026;-57
2022/06/13 09:52:47;;;;;;;9.55;3.60;;;28.60;73.60;;;;;;5015313;28;20033;-52
2022/06/13 09:55:58;;;;;;;8.95;3.25;;;27.40;77.20;;;;;;5010869;28;20042;-55
2022/06/13 09:58:48;;;;;;;8.37;2.53;;;26.60;80.50;;;;;;4959357;28;20027;-50
2022/06/13 10:01:13;;;;;;;5.85;3.17;;;25.70;83.00;;;;;;5016641;28;20025;-52
2022/06/13 10:04:11;;;;;;;6.82;2.58;;;24.90;85.40;;;;;;5014895;28;20084;-54
2022/06/13 10:06:49;;;;;;;5.70;2.25;;;24.70;90.00;;;;;;5016303;28;20050;-51
2022/06/13 10:09:39;;;;;;;6.80;2.22;;;24.30;89.30;;;;;;5014960;28;20388;-55
2022/06/13 10:12:26;;;;;;;5.20;2.17;;;25.10;90.00;;;;;;5015612;28;20160;-55
2022/06/13 10:15:13;;;;;;;7.55;2.35;;;26.80;89.50;;;;;;5016390;28;20022;-57
2022/06/13 10:18:00;;;;;;;4.65;1.88;;;27.80;84.80;;;;;;5014901;28;20022;-56
2022/06/13 10:20:47;;;;;;;6.25;2.60;;;29.70;78.70;;;;;;5014698;28;20026;-54
2022/06/13 10:24:02;;;;;;;3.65;2.00;;;30.50;78.80;;;;;;5015582;28;20080;-55
2022/06/13 10:27:03;;;;;;;4.63;2.58;;;29.50;78.40;;;;;;5014783;28;20067;-54
2022/06/13 10:29:41;;;;;;;2.88;1.70;;;29.70;79.30;;;;;;5014934;28;20030;-58
2022/06/13 10:32:13;;;;;;;4.85;1.85;;;30.20;76.30;;;;;;5015194;28;20034;-57
2022/06/13 10:34:47;;;;;;;4.35;2.20;;;30.10;75.80;;;;;;5015255;28;20025;-56
2022/06/13 10:37:22;;;;;;;7.18;2.75;;;29.80;75.10;;;;;;5014727;28;20152;-52
2022/06/13 10:39:52;;;;;;;7.10;3.00;;;27.90;75.60;;;;;;5015524;28;20065;-53
2022/06/13 10:42:24;;;;;;;5.97;2.80;;;27.40;80.30;;;;;;5014647;28;20026;-52
2022/06/13 10:44:51;;;;;;;8.60;3.58;;;25.90;81.20;;;;;;5014251;28;20026;-51
2022/06/13 10:47:26;;;;;;;7.85;2.95;;;25.30;83.40;;;;;;5014288;28;20022;-52
2022/06/13 10:50:06;;;;;;;7.70;3.38;;;24.80;84.30;;;;;;5013622;28;20030;-51
2022/06/13 10:52:36;;;;;;;8.52;3.05;;;24.00;88.40;;;;;;5015361;28;20025;-50
2022/06/13 10:55:10;;;;;;;8.47;3.23;;;24.10;89.80;;;;;;5014719;28;20057;-53
2022/06/13 10:57:48;;;;;;;7.22;2.75;;;24.70;88.80;;;;;;5014559;28;20256;-52
2022/06/13 11:00:19;;;;;;;8.82;3.40;;;24.70;87.00;;;;;;5013976;28;20507;-52
2022/06/13 11:02:45;;;;;;;10.70;3.65;;;24.90;88.90;;;;;;5015174;28;20042;-52
2022/06/13 11:05:25;;;;;;;9.30;3.13;;;24.80;88.70;;;;;;5014933;28;20025;-52
2022/06/13 11:07:59;;;;;;;5.30;2.40;;;24.30;88.00;;;;;;5013968;28;20032;-53
2022/06/13 11:10:39;;;;;;;7.35;2.88;;;24.50;89.50;;;;;;5014130;28;20068;-50
2022/06/13 11:13:13;;;;;;;5.07;2.42;;;25.10;89.80;;;;;;5015057;28;20427;-53
2022/06/13 11:24:52;;;;;;;4.53;2.30;;;26.00;83.20;;;;;;5015024;28;20076;-54
2022/06/13 11:27:39;;;;;;;6.55;2.13;;;25.50;85.40;;;;;;5013566;28;20032;-56
2022/06/13 11:30:32;;;;;;;6.38;3.13;;;25.60;84.20;;;;;;5014811;28;20034;-54
2022/06/13 11:33:05;;;;;;;7.53;2.30;;;25.80;80.70;;;;;;5013451;28;20030;-57
2022/06/13 11:35:51;;;;;;;9.63;3.30;;;25.90;80.30;;;;;;5013490;28;20026;-57
2022/06/13 11:38:21;;;;;;;8.40;2.50;;;25.90;82.20;;;;;;5013389;28;20126;-52
2022/06/13 11:41:00;;;;;;;3.80;2.03;;;25.90;81.00;;;;;;5014462;28;20045;-55
2022/06/13 11:43:46;;;;;;;7.32;2.92;;;26.10;82.20;;;;;;5014568;28;20018;-56
2022/06/13 11:46:58;;;;;;;7.40;2.75;;;26.30;79.00;;;;;;5014447;28;20048;-55
2022/06/13 11:49:28;;;;;;;;;;;26.40;79.40;;;;;;5005939;28;20447;-52
2022/06/13 11:52:06;;;;;;;5.70;2.40;;;26.70;80.70;;;;;;5013712;28;19913;-56
2022/06/13 11:54:56;;;;;;;6.35;2.67;;;26.70;79.20;;;;;;5014268;28;20046;-57
2022/06/13 11:57:33;;;;;;;11.33;3.83;;;26.60;78.10;;;;;;5013673;28;20068;-56
2022/06/13 12:00:18;;;;;;;6.63;2.67;;;26.60;77.80;;;;;;5013128;28;20133;-55
2022/06/13 12:02:50;;;;;;;6.88;2.58;;;26.50;77.40;;;;;;5012755;28;20022;-54
2022/06/13 12:05:28;;;;;;;9.63;3.10;;;26.50;79.80;;;;;;5014450;28;20030;-55
2022/06/13 12:08:00;;;;;;;10.35;4.10;;;26.60;79.60;;;;;;5014328;28;20018;-56
2022/06/13 12:10:38;;;;;;;6.63;2.60;;;26.70;76.60;;;;;;5014130;28;20090;-52
2022/06/13 12:13:13;;;;;;;8.90;2.78;;;26.70;77.10;;;;;;5012693;28;20033;-52
2022/06/13 12:16:09;;;;;;;7.28;2.60;;;26.50;76.30;;;;;;5013688;28;20053;-53
2022/06/13 12:18:41;;;;;;;9.85;3.10;;;26.30;76.20;;;;;;5013491;28;20034;-52
2022/06/13 12:21:30;;;;;;;8.90;2.70;;;26.20;73.70;;;;;;5013870;28;20089;-51
2022/06/13 12:24:27;;;;;;;5.20;3.17;;;25.90;73.60;;;;;;5013060;28;20022;-51
2022/06/13 12:27:24;;;;;;;6.35;3.08;;;25.80;73.10;;;;;;5013723;28;20022;-53
2022/06/13 12:29:58;;;;;;;4.65;2.33;;;26.00;73.80;;;;;;5011862;28;20038;-52
2022/06/13 12:32:35;;;;;;;10.48;3.22;;;26.10;71.60;;;;;;5014006;28;20057;-53
2022/06/13 12:35:16;;;;;;;8.00;2.97;;;26.00;71.90;;;;;;5013131;28;20029;-51
2022/06/13 12:37:59;;;;;;;9.77;3.35;;;26.10;71.30;;;;;;5012842;28;20026;-52
2022/06/13 12:40:38;;;;;;;4.65;2.17;;;26.20;71.80;;;;;;5013560;28;20030;-52
2022/06/13 12:43:22;;;;;;;7.18;2.40;;;26.20;73.20;;;;;;5013850;28;20026;-51
2022/06/13 12:45:53;;;;;;;5.03;2.70;;;26.10;72.90;;;;;;5013568;28;20022;-51
2022/06/13 12:48:22;;;;;;;;;;;26.10;72.90;;;;;;5013596;28;20064;-54
2022/06/13 12:51:17;;;;;;;9.30;2.55;;;26.00;73.20;;;;;;5013565;28;19905;-50
2022/06/13 12:54:07;;;;;;;3.70;2.40;;;25.90;73.30;;;;;;5013570;28;20530;-52
2022/06/13 12:57:00;;;;;;;7.03;2.57;;;25.80;73.80;;;;;;5013431;28;20037;-50
2022/06/13 12:59:36;;;;;;;9.32;3.28;;;25.70;73.60;;;;;;5013456;28;20038;-51
2022/06/13 13:02:29;;;;;;;5.45;2.80;;;25.70;71.70;;;;;;5013736;28;20022;-54
2022/06/13 13:05:01;;;;;;;6.88;3.15;;;25.70;72.50;;;;;;5013447;28;20034;-53
2022/06/13 13:07:59;;;;;;;10.50;3.25;;;25.70;74.10;;;;;;5013380;28;20029;-51
2022/06/13 13:10:37;;;;;;;8.82;2.67;;;25.90;72.60;;;;;;5012230;28;20065;-49
2022/06/13 13:13:11;;;;;;;5.78;2.65;;;25.70;75.50;;;;;;5013902;28;20033;-52
2022/06/13 13:15:52;;;;;;;9.60;3.58;;;25.90;72.10;;;;;;5017543;28;20030;-49
2022/06/13 13:18:35;;;;;;;5.17;2.50;;;25.90;72.60;;;;;;5017653;28;20053;-52
2022/06/13 13:21:28;;;;;;;6.35;2.95;;;26.00;73.20;;;;;;5015897;28;20122;-51
2022/06/13 13:24:05;;;;;;;10.23;4.13;;;26.00;75.60;;;;;;5015831;28;20030;-49
2022/06/13 13:27:03;;;;;;;7.47;2.90;;;26.00;72.90;;;;;;5017182;28;20025;-52
2022/06/13 13:29:44;;;;;;;7.72;2.95;;;26.00;72.90;;;;;;5017126;28;20057;-51
2022/06/13 13:32:12;;;;;;;9.80;3.50;;;25.90;73.80;;;;;;5015771;28;20025;-49
2022/06/13 13:34:48;;;;;;;7.57;2.50;;;25.90;71.90;;;;;;5016783;28;20453;-52
2022/06/13 13:37:26;;;;;;;8.57;2.40;;;25.80;74.60;;;;;;5016532;28;20021;-53
2022/06/13 13:40:15;;;;;;;7.05;2.63;;;25.80;73.90;;;;;;5017056;28;20049;-53
2022/06/13 13:43:05;;;;;;;5.22;2.30;;;25.80;70.20;;;;;;5016686;28;20029;-52
2022/06/13 13:45:49;;;;;;;3.50;1.95;;;25.90;70.40;;;;;;5015522;28;20050;-53
2022/06/13 13:48:19;;;;;;;5.45;2.47;;;25.80;71.60;;;;;;5015763;28;20112;-53
2022/06/13 13:50:55;;;;;;;6.82;2.42;;;25.70;72.50;;;;;;5015382;28;20057;-51
2022/06/13 13:53:25;;;;;;;6.93;2.20;;;25.70;70.40;;;;;;5015937;28;20018;-52